Endicott, Virginia
Current Conditions -  °F | °C
As of 6:15 AM on Sunday 23 Nov 2014 (Local Time) from KMTV Reporting Station
Clear Clear  
Wind Chill: 31°   Ceiling: Unl
Heat Index: 31°   Visibility: 10mi
Dew Point: 27°   Wind: 0mph
Humidity: 82%   Direction: NA
Pressure: 30.27"   Gusts: NA
Location:  36.9002°N, 80.0779°W
Report Text: KMTV 231115Z AUTO 00000KT 10SM CLR 00/M03 A3027 RMK AO2 T10031030
Loading
Personal Weather Stations






























Interactive Weather Map New forecast layout! Learn more

10-Day Weather Forecast

Advertisements
Track Severe Weather on mobile